Time;durP1;ratioP1;P1;durP2;ratioP2;P2;SDS_P1;SDS_P2;PMS_P1;PMS_P2;Temp;Humidity;BMP_temperature;BMP_pressure;BME280_temperature;BME280_humidity;BME280_pressure;Samples;Min_cycle;Max_cycle;Signal;HPM_P1;HPM_P2
2021/10/28 00:13:09;;;;;;;20.52;10.10;;;;;;;4.61;75.89;100711.13;4878843;29;20140;-61
2021/10/28 00:15:41;;;;;;;16.90;9.57;;;;;;;4.62;75.95;100712.84;4878722;29;20057;-60
2021/10/28 00:18:16;;;;;;;19.38;9.98;;;;;;;4.55;75.76;100715.06;4878834;29;20053;-60
2021/10/28 00:20:52;;;;;;;20.58;10.40;;;;;;;4.46;75.71;100709.66;4879103;29;20057;-60
2021/10/28 00:23:24;;;;;;;18.38;9.80;;;;;;;4.48;75.81;100705.53;4878723;29;20488;-61
2021/10/28 00:25:55;;;;;;;21.67;10.05;;;;;;;4.54;76.57;100705.75;4878711;29;20056;-60
2021/10/28 00:28:28;;;;;;;19.67;10.40;;;;;;;4.65;76.56;100700.31;4878695;29;20060;-60
2021/10/28 00:31:01;;;;;;;23.73;11.23;;;;;;;4.75;76.48;100696.50;4879004;29;20142;-60
2021/10/28 00:33:34;;;;;;;17.38;9.88;;;;;;;4.75;76.65;100699.03;4878639;29;20499;-60
2021/10/28 00:36:09;;;;;;;16.80;9.35;;;;;;;4.73;76.64;100695.56;4878898;29;20481;-60
2021/10/28 00:38:39;;;;;;;23.40;10.13;;;;;;;4.76;76.05;100690.63;4881894;29;20124;-60
2021/10/28 00:41:13;;;;;;;19.27;9.82;;;;;;;4.88;76.52;100696.16;4882149;29;20511;-61
2021/10/28 00:43:46;;;;;;;19.73;9.20;;;;;;;4.59;76.32;100692.50;4881801;29;20105;-61
2021/10/28 00:46:20;;;;;;;19.13;10.05;;;;;;;4.42;76.20;100692.63;4882045;29;20163;-61
2021/10/28 00:48:50;;;;;;;19.33;9.60;;;;;;;4.34;76.19;100699.06;4881695;29;20053;-60
2021/10/28 00:51:22;;;;;;;19.85;9.43;;;;;;;4.35;76.26;100690.66;4881688;29;20140;-60
2021/10/28 00:53:53;;;;;;;17.85;9.65;;;;;;;4.43;76.08;100696.91;4881937;29;20108;-60
2021/10/28 00:56:28;;;;;;;19.33;9.23;;;;;;;4.53;75.49;100691.41;4881828;29;20559;-60
2021/10/28 00:59:02;;;;;;;18.80;9.18;;;;;;;4.24;75.80;100691.91;4881561;29;20041;-60
2021/10/28 01:01:34;;;;;;;18.23;9.95;;;;;;;4.29;76.84;100692.97;4881500;29;20101;-60
2021/10/28 01:04:10;;;;;;;17.42;9.18;;;;;;;4.37;76.05;100694.97;4827387;29;1604778;-61
2021/10/28 01:06:43;;;;;;;17.48;9.57;;;;;;;4.22;75.78;100688.47;4882824;29;20507;-61
2021/10/28 01:09:15;;;;;;;16.10;9.57;;;;;;;4.01;76.28;100689.28;4882521;29;20131;-61
2021/10/28 01:11:49;;;;;;;17.15;8.80;;;;;;;4.04;76.16;100688.56;4882804;29;20131;-60
2021/10/28 01:14:22;;;;;;;16.83;9.25;;;;;;;4.03;76.54;100692.75;4882445;29;20140;-61
2021/10/28 01:16:56;;;;;;;16.35;9.50;;;;;;;4.08;76.61;100693.78;4882192;29;20105;-60
2021/10/28 01:19:25;;;;;;;16.95;8.77;;;;;;;4.15;76.76;100689.00;4882660;29;20449;-61
2021/10/28 01:21:59;;;;;;;20.58;8.73;;;;;;;4.06;77.07;100682.78;4882262;29;20045;-60
2021/10/28 01:24:29;;;;;;;19.00;8.90;;;;;;;4.03;76.66;100691.91;4882271;29;20081;-61
2021/10/28 01:27:03;;;;;;;28.27;8.85;;;;;;;3.96;77.22;100700.88;4882384;29;20132;-61
2021/10/28 01:29:34;;;;;;;15.32;8.50;;;;;;;4.05;76.78;100693.66;4882177;29;20065;-61
2021/10/28 01:32:08;;;;;;;15.65;8.43;;;;;;;4.14;76.71;100685.63;4882120;29;20060;-60
2021/10/28 01:34:43;;;;;;;16.40;8.30;;;;;;;4.16;77.08;100688.19;4882067;29;20053;-60
2021/10/28 01:37:17;;;;;;;15.65;8.15;;;;;;;4.14;76.62;100684.75;4881859;29;20052;-60
2021/10/28 01:39:50;;;;;;;19.23;9.40;;;;;;;4.18;76.96;100691.63;4882546;29;20053;-60
2021/10/28 01:42:22;;;;;;;15.45;8.93;;;;;;;4.07;76.89;100681.97;4881965;29;20065;-60
2021/10/28 01:44:54;;;;;;;15.68;8.25;;;;;;;4.08;76.73;100680.28;4881957;29;20563;-60
2021/10/28 01:47:27;;;;;;;15.60;8.23;;;;;;;4.08;76.30;100671.06;4881753;29;20059;-60
2021/10/28 01:49:59;;;;;;;19.75;9.43;;;;;;;4.03;76.23;100677.59;4881829;29;20049;-60
2021/10/28 01:52:35;;;;;;;17.63;8.80;;;;;;;4.13;76.38;100673.78;4882799;29;20117;-62
2021/10/28 01:55:09;;;;;;;17.48;8.77;;;;;;;4.10;76.36;100670.28;4488942;23;20491;-61
2021/10/28 01:57:39;;;;;;;20.00;9.60;;;;;;;4.03;76.54;100674.22;4881843;29;20403;-61
2021/10/28 02:00:17;;;;;;;18.42;9.80;;;;;;;4.10;76.63;100673.66;4881648;29;20048;-61
2021/10/28 02:02:50;;;;;;;17.70;9.32;;;;;;;4.00;76.02;100677.47;4881630;29;20053;-61
2021/10/28 02:05:25;;;;;;;18.02;8.73;;;;;;;3.93;75.68;100675.50;4881751;29;20057;-61
2021/10/28 02:07:56;;;;;;;16.90;9.10;;;;;;;3.86;75.68;100678.53;4881448;29;20084;-61
2021/10/28 02:10:25;;;;;;;16.15;9.10;;;;;;;3.79;76.09;100676.56;4881446;29;20060;-61
2021/10/28 02:12:58;;;;;;;15.55;9.02;;;;;;;3.72;76.32;100664.47;4881387;29;20061;-61
2021/10/28 02:15:30;;;;;;;21.58;9.38;;;;;;;3.55;75.60;100665.41;4881352;29;20063;-61
2021/10/28 02:18:03;;;;;;;18.92;9.18;;;;;;;3.59;76.50;100667.31;4882068;29;20392;-63
2021/10/28 02:20:35;;;;;;;21.98;10.27;;;;;;;3.47;76.15;100678.53;4881498;29;20526;-63
2021/10/28 02:23:11;;;;;;;16.52;9.43;;;;;;;3.44;76.28;100670.81;4881452;29;20472;-63
2021/10/28 02:25:43;;;;;;;18.83;9.27;;;;;;;3.50;77.17;100682.06;4881199;29;20078;-63
2021/10/28 02:28:16;;;;;;;16.08;8.60;;;;;;;3.58;77.28;100675.66;4881351;29;20057;-63
2021/10/28 02:30:48;;;;;;;18.45;9.57;;;;;;;3.49;76.68;100675.28;4881102;29;20057;-62
2021/10/28 02:33:21;;;;;;;17.95;8.23;;;;;;;3.51;76.68;100678.72;4881053;29;20160;-63
2021/10/28 02:35:53;;;;;;;16.65;8.93;;;;;;;3.49;76.40;100677.78;4880944;29;20061;-63
2021/10/28 02:38:27;;;;;;;17.52;9.10;;;;;;;3.67;76.73;100670.16;4880962;29;20464;-62
2021/10/28 02:41:00;;;;;;;17.40;9.07;;;;;;;3.50;75.92;100666.03;4880979;29;20483;-62
2021/10/28 02:43:32;;;;;;;16.23;9.15;;;;;;;3.38;76.99;100666.38;4880806;29;20049;-62
2021/10/28 02:46:05;;;;;;;16.35;8.40;;;;;;;3.39;76.98;100663.03;4881393;29;20049;-63
2021/10/28 02:48:37;;;;;;;18.13;8.57;;;;;;;3.39;76.61;100671.50;4880696;29;20052;-63
2021/10/28 02:51:10;;;;;;;19.25;9.55;;;;;;;3.43;77.56;100664.94;4880666;29;20059;-63
2021/10/28 02:53:43;;;;;;;15.68;8.20;;;;;;;3.59;77.13;100672.34;4880949;29;20052;-63
2021/10/28 02:56:16;;;;;;;18.73;9.02;;;;;;;3.55;77.00;100675.53;4880372;29;20168;-63
2021/10/28 02:58:49;;;;;;;17.67;9.07;;;;;;;3.72;76.92;100674.59;4880505;29;20055;-63
2021/10/28 03:01:21;;;;;;;15.82;8.70;;;;;;;3.78;76.85;100674.84;4880560;29;20063;-63
2021/10/28 03:03:54;;;;;;;17.40;9.63;;;;;;;3.89;76.32;100667.72;4880505;29;20104;-63
2021/10/28 03:06:27;;;;;;;18.85;9.60;;;;;;;3.88;77.22;100676.97;4880729;29;20048;-63
2021/10/28 03:08:57;;;;;;;19.23;10.13;;;;;;;3.93;77.25;100665.41;4880945;29;20053;-62
2021/10/28 03:11:30;;;;;;;20.80;10.30;;;;;;;4.00;76.16;100672.44;4880672;29;20430;-62
2021/10/28 03:14:03;;;;;;;19.67;9.73;;;;;;;3.88;76.75;100682.03;4880434;29;20566;-62
2021/10/28 03:16:45;;;;;;;19.92;9.50;;;;;;;3.73;76.70;100680.50;4880466;29;20059;-62
2021/10/28 03:19:27;;;;;;;18.67;9.77;;;;;;;3.75;77.07;100679.75;4880487;29;20128;-62
2021/10/28 03:27:29;;;;;;;20.58;10.25;;;;;;;3.68;77.08;100682.84;4880131;29;20056;-63
2021/10/28 03:29:58;;;;;;;21.48;9.60;;;;;;;3.63;76.77;100681.78;4880350;29;20072;-62
2021/10/28 03:32:28;;;;;;;20.60;10.18;;;;;;;3.65;76.12;100689.41;4880322;29;20488;-62
2021/10/28 03:35:13;;;;;;;21.88;10.15;;;;;;;3.53;76.15;100689.75;4880003;29;20056;-63
2021/10/28 03:37:46;;;;;;;30.42;13.77;;;;;;;3.51;77.19;100693.84;4879938;29;20048;-63
2021/10/28 03:40:32;;;;;;;34.05;15.70;;;;;;;3.67;76.65;100695.41;4879942;29;20057;-62
2021/10/28 04:21:23;;;;;;;20.30;10.93;;;;;;;3.24;76.68;100682.53;4844685;29;20424;-62
2021/10/28 04:29:16;;;;;;;30.63;14.63;;;;;;;3.17;76.94;100690.63;4844396;29;20500;-63
2021/10/28 04:31:49;;;;;;;33.70;17.35;;;;;;;3.07;77.34;100688.53;4881152;29;20045;-62
2021/10/28 04:34:18;;;;;;;28.90;15.70;;;;;;;3.12;77.30;100698.00;4883102;29;20113;-62
2021/10/28 04:36:51;;;;;;;27.67;15.20;;;;;;;3.04;77.05;100690.91;4883306;29;20049;-63
2021/10/28 04:39:20;;;;;;;30.75;14.70;;;;;;;2.99;77.06;100697.38;4883371;29;20419;-63
2021/10/28 04:41:55;;;;;;;34.10;14.13;;;;;;;3.00;77.70;100697.44;4882922;29;20045;-63
2021/10/28 04:44:27;;;;;;;22.65;12.90;;;;;;;3.20;77.63;100694.19;4882982;29;20061;-63
2021/10/28 04:46:59;;;;;;;23.02;12.73;;;;;;;3.10;77.77;100691.16;4882959;29;20586;-62
2021/10/28 04:49:28;;;;;;;29.20;14.10;;;;;;;3.01;77.10;100699.19;4883216;29;20097;-63
2021/10/28 04:51:58;;;;;;;26.08;13.45;;;;;;;2.97;76.82;100698.97;4882675;29;20048;-62
2021/10/28 04:54:27;;;;;;;;;;;;;;;2.94;77.21;100696.31;4882355;29;20108;-63
2021/10/28 04:56:59;;;;;;;27.88;13.77;;;;;;;3.06;77.80;100697.75;4882668;29;19931;-63
2021/10/28 04:59:30;;;;;;;32.50;15.93;;;;;;;3.18;77.01;100697.44;4883010;29;20057;-63
2021/10/28 05:02:03;;;;;;;29.92;16.05;;;;;;;3.32;77.62;100688.81;4882883;29;20136;-62
2021/10/28 05:04:32;;;;;;;30.25;15.65;;;;;;;3.39;77.77;100693.31;4882568;29;20045;-61
2021/10/28 05:07:05;;;;;;;27.23;13.88;;;;;;;3.40;77.57;100684.97;4882542;29;20049;-62
2021/10/28 05:09:40;;;;;;;27.90;12.45;;;;;;;3.60;77.44;100691.72;4882866;29;20519;-62
2021/10/28 05:12:12;;;;;;;26.88;12.30;;;;;;;3.69;76.83;100694.66;4882512;29;20057;-62
2021/10/28 05:14:46;;;;;;;24.77;12.68;;;;;;;3.82;77.68;100690.97;4883058;29;20092;-63
2021/10/28 05:17:18;;;;;;;22.73;12.82;;;;;;;3.65;77.59;100692.78;4882553;29;20057;-62
2021/10/28 05:19:48;;;;;;;23.73;12.85;;;;;;;3.59;77.38;100692.53;4882656;29;20056;-62
2021/10/28 05:22:21;;;;;;;26.13;13.25;;;;;;;3.50;77.22;100702.25;4882165;29;20049;-63
2021/10/28 05:24:51;;;;;;;23.60;12.90;;;;;;;3.44;77.31;100706.13;4882263;29;20105;-63
2021/10/28 05:27:26;;;;;;;23.02;12.50;;;;;;;3.37;77.45;100705.88;4882191;29;20495;-62
2021/10/28 05:30:05;;;;;;;23.27;12.43;;;;;;;3.27;78.00;100718.00;4882163;29;20132;-62
2021/10/28 05:32:38;;;;;;;23.05;12.52;;;;;;;3.32;78.33;100714.03;4882289;29;20048;-62
2021/10/28 05:35:08;;;;;;;25.92;13.25;;;;;;;3.31;77.93;100714.84;4882064;29;20059;-62
2021/10/28 05:37:41;;;;;;;25.50;14.25;;;;;;;3.17;77.54;100716.72;4882027;29;20053;-62
2021/10/28 05:40:11;;;;;;;23.38;13.63;;;;;;;3.18;77.21;100717.59;4882065;29;20057;-63
2021/10/28 05:42:48;;;;;;;27.50;15.20;;;;;;;3.15;77.35;100719.97;4882311;29;20384;-62
2021/10/28 05:45:22;;;;;;;32.13;16.88;;;;;;;3.13;77.14;100714.00;4882506;29;20100;-62
2021/10/28 05:47:54;;;;;;;47.22;23.80;;;;;;;3.13;77.46;100729.13;4881796;29;20059;-62
2021/10/28 05:50:29;;;;;;;43.80;21.98;;;;;;;3.13;77.83;100726.63;4881850;29;20131;-62
2021/10/28 05:53:02;;;;;;;40.28;20.52;;;;;;;3.19;78.15;100722.69;4882371;29;20097;-62
2021/10/28 05:55:34;;;;;;;45.50;22.80;;;;;;;3.33;77.83;100729.25;4881127;29;20061;-62
2021/10/28 05:58:06;;;;;;;40.28;19.77;;;;;;;3.46;78.74;100723.06;4881574;29;20055;-63
2021/10/28 06:00:40;;;;;;;41.75;19.30;;;;;;;3.50;78.58;100722.44;4881562;29;20053;-63
2021/10/28 06:03:13;;;;;;;36.05;17.83;;;;;;;3.54;78.40;100726.81;4881870;29;20105;-63
2021/10/28 06:05:43;;;;;;;38.40;19.00;;;;;;;3.64;78.75;100735.63;4881501;29;20041;-63
2021/10/28 06:08:12;;;;;;;37.63;17.23;;;;;;;3.67;77.76;100736.63;4881384;29;20105;-62
2021/10/28 06:10:42;;;;;;;30.17;15.40;;;;;;;3.67;78.05;100736.63;4881396;29;20540;-62
2021/10/28 06:13:17;;;;;;;30.00;15.35;;;;;;;3.69;78.53;100740.09;4881375;29;20399;-63
2021/10/28 06:15:51;;;;;;;28.85;15.02;;;;;;;3.75;78.65;100742.88;4881613;29;20057;-63
2021/10/28 06:21:03;;;;;;;27.88;13.55;;;;;;;3.99;79.06;100736.34;4881221;29;20060;-62
2021/10/28 06:23:35;;;;;;;27.23;13.65;;;;;;;4.20;78.78;100750.69;4881199;29;20049;-62
2021/10/28 06:26:08;;;;;;;28.52;13.20;;;;;;;4.30;78.70;100747.72;4881623;29;20045;-63
2021/10/28 06:28:40;;;;;;;24.98;14.00;;;;;;;4.37;78.29;100754.75;4881715;29;20454;-62
2021/10/28 06:31:16;;;;;;;29.85;13.57;;;;;;;4.56;78.47;100752.16;4881037;29;20135;-62
2021/10/28 06:33:53;;;;;;;31.50;15.52;;;;;;;4.86;78.91;100747.47;4880717;29;20053;-62
2021/10/28 06:36:25;;;;;;;35.22;15.20;;;;;;;5.05;78.49;100749.91;4880666;29;20085;-63
2021/10/28 06:38:54;;;;;;;27.05;13.88;;;;;;;5.20;77.61;100758.97;4880426;29;20060;-62
2021/10/28 06:41:27;;;;;;;24.90;13.95;;;;;;;5.32;77.82;100751.84;4880768;29;20053;-62
2021/10/28 06:44:00;;;;;;;24.83;13.23;;;;;;;5.27;77.74;100763.44;4864191;29;20068;-62
2021/10/28 06:46:35;;;;;;;28.50;14.48;;;;;;;5.46;77.39;100761.59;4881127;29;20057;-63
2021/10/28 06:49:08;;;;;;;27.60;14.10;;;;;;;5.65;77.29;100764.00;4880739;29;20051;-62
2021/10/28 06:51:37;;;;;;;26.48;13.18;;;;;;;5.75;77.20;100773.66;4880725;29;20108;-63
2021/10/28 06:54:10;;;;;;;;;;;;;;;5.82;77.08;100761.25;4880764;29;20097;-63
2021/10/28 06:56:56;;;;;;;27.50;13.57;;;;;;;5.89;77.35;100769.97;4880637;29;20371;-63
2021/10/28 07:04:46;;;;;;;24.85;12.38;;;;;;;6.35;76.57;100770.75;4880503;29;20049;-62
2021/10/28 07:07:17;;;;;;;22.05;11.23;;;;;;;6.38;76.46;100765.75;4880129;29;20131;-62
2021/10/28 07:10:00;;;;;;;23.75;12.32;;;;;;;6.45;76.76;100772.78;4880527;29;20492;-62
2021/10/28 07:15:21;;;;;;;21.42;11.43;;;;;;;6.71;76.59;100773.63;4841829;29;20060;-62
2021/10/28 07:29:06;;;;;;;21.52;10.50;;;;;;;7.04;77.35;100766.19;4841069;29;20281;-62
2021/10/28 07:59:14;;;;;;;20.98;10.23;;;;;;;7.91;75.41;100784.03;4878859;29;20089;-62
2021/10/28 08:15:19;;;;;;;17.50;10.52;;;;;;;8.63;75.07;100774.09;4879513;29;20109;-62
2021/10/28 08:18:02;;;;;;;18.33;10.18;;;;;;;8.70;75.37;100776.81;4878931;29;20104;-62
2021/10/28 08:23:17;;;;;;;14.15;8.32;;;;;;;8.85;74.84;100743.25;4877869;29;20114;-62
2021/10/28 08:31:07;;;;;;;18.42;10.15;;;;;;;9.11;74.16;100764.19;4879280;29;20057;-62
2021/10/28 08:33:39;;;;;;;19.08;10.27;;;;;;;9.14;73.75;100764.25;4879808;29;20116;-62
2021/10/28 08:36:09;;;;;;;18.67;10.20;;;;;;;9.22;73.95;100758.50;4879184;29;20064;-62
2021/10/28 08:38:43;;;;;;;21.10;10.80;;;;;;;9.34;73.71;100758.75;4879342;29;20484;-62
2021/10/28 08:41:13;;;;;;;17.45;10.98;;;;;;;9.55;73.88;100752.41;4879480;29;20049;-62
2021/10/28 08:43:43;;;;;;;18.42;10.35;;;;;;;9.66;72.85;100749.25;4879382;29;20579;-62
2021/10/28 08:46:14;;;;;;;20.42;11.55;;;;;;;9.76;73.12;100740.09;4879536;29;20140;-62
2021/10/28 08:48:49;;;;;;;19.73;11.23;;;;;;;9.89;72.66;100745.44;4879274;29;20511;-62
2021/10/28 08:51:23;;;;;;;20.48;11.40;;;;;;;10.14;72.43;100746.81;4879468;29;20083;-62
2021/10/28 08:56:47;;;;;;;19.20;10.82;;;;;;;10.45;71.91;100738.84;4879471;29;20408;-62
2021/10/28 08:59:36;;;;;;;19.40;10.98;;;;;;;10.73;71.10;100745.25;4882492;29;20049;-62
2021/10/28 09:27:03;;;;;;;20.33;12.93;;;;;;;12.18;66.69;100736.06;4874405;29;20051;-63
2021/10/28 09:29:46;;;;;;;20.00;12.73;;;;;;;12.09;66.17;100727.44;4882258;29;20084;-63
2021/10/28 09:32:30;;;;;;;19.52;11.75;;;;;;;12.47;65.66;100730.38;4882083;29;20045;-63
2021/10/28 09:43:44;;;;;;;18.50;12.43;;;;;;;13.63;61.65;100727.66;4882198;29;20141;-62
2021/10/28 09:46:34;;;;;;;18.25;12.02;;;;;;;13.59;59.85;100730.22;4882186;29;20059;-62
2021/10/28 09:52:02;;;;;;;17.35;10.70;;;;;;;13.75;57.70;100712.31;4881555;29;20072;-63
2021/10/28 09:54:41;;;;;;;16.13;10.68;;;;;;;13.95;56.61;100720.06;4881947;29;20612;-63
2021/10/28 10:00:06;;;;;;;16.23;9.95;;;;;;;14.07;54.84;100714.97;4881312;29;20561;-63
2021/10/28 10:02:44;;;;;;;14.48;10.35;;;;;;;14.26;53.96;100713.28;4881829;29;20097;-63
2021/10/28 10:05:18;;;;;;;15.38;10.27;;;;;;;14.43;53.01;100707.34;4881726;29;20096;-63
2021/10/28 10:07:48;;;;;;;15.93;10.10;;;;;;;14.63;52.09;100702.19;4882196;29;20103;-63
2021/10/28 10:10:19;;;;;;;14.80;9.70;;;;;;;14.67;52.01;100704.75;4880468;29;20143;-63
2021/10/28 10:12:52;;;;;;;14.57;9.30;;;;;;;14.81;50.93;100701.28;4881388;29;20135;-62
2021/10/28 10:15:23;;;;;;;15.82;10.35;;;;;;;14.89;50.64;100700.44;4881500;29;20049;-63
2021/10/28 10:17:54;;;;;;;15.27;9.45;;;;;;;14.97;50.34;100698.69;4881568;29;20049;-63
2021/10/28 10:20:33;;;;;;;13.02;9.73;;;;;;;15.15;50.44;100695.22;4881137;29;20562;-62
2021/10/28 10:26:10;;;;;;;14.35;9.38;;;;;;;15.12;49.93;100690.09;4879131;29;20158;-63
2021/10/28 11:04:05;;;;;;;11.23;7.15;;;;;;;15.53;43.78;100631.63;4880748;29;20041;-61
2021/10/28 11:27:09;;;;;;;10.45;6.13;;;;;;;16.15;41.85;100622.66;4880258;29;20057;-63
2021/10/28 12:46:16;;;;;;;8.27;5.53;;;;;;;16.48;39.93;100532.16;4882899;29;20284;-62
2021/10/28 12:49:05;;;;;;;10.57;5.97;;;;;;;16.36;39.93;100521.97;4883063;29;20041;-63
2021/10/28 12:51:51;;;;;;;7.43;4.28;;;;;;;16.32;40.12;100530.56;4882816;29;20101;-62
2021/10/28 13:03:10;;;;;;;8.90;5.68;;;;;;;16.30;41.21;100527.16;4882808;29;20500;-62
2021/10/28 13:38:00;;;;;;;10.85;5.88;;;;;;;15.99;41.43;100496.56;4882260;29;20457;-62
2021/10/28 13:48:42;;;;;;;9.73;6.32;;;;;;;15.69;42.50;100494.25;4881848;29;20076;-62
2021/10/28 14:29:33;;;;;;;14.25;6.43;;;;;;;14.24;45.83;100484.75;4881058;29;20084;-63
2021/10/28 14:32:31;;;;;;;11.45;6.90;;;;;;;14.22;45.68;100490.75;4881288;29;20144;-63
2021/10/28 15:29:07;;;;;;;12.60;6.93;;;;;;;13.02;49.78;100469.34;4880204;29;20132;-63
2021/10/28 15:37:05;;;;;;;20.42;11.27;;;;;;;12.80;49.83;100468.44;4880087;29;20057;-63
2021/10/28 15:39:41;;;;;;;14.82;8.38;;;;;;;12.71;50.06;100466.72;4880367;29;20052;-63
2021/10/28 16:23:22;;;;;;;12.13;7.70;;;;;;;10.48;58.36;100468.38;4883307;29;20080;-62
2021/10/28 16:25:52;;;;;;;12.73;8.32;;;;;;;10.33;58.51;100468.16;4883633;29;20064;-62
2021/10/28 16:28:26;;;;;;;13.82;7.97;;;;;;;10.29;58.18;100470.66;4883868;29;20096;-63
2021/10/28 16:30:58;;;;;;;13.40;8.70;;;;;;;10.20;59.30;100465.44;4883250;29;20057;-62
2021/10/28 16:33:31;;;;;;;21.02;10.82;;;;;;;10.11;59.42;100466.13;4883560;29;20076;-62
2021/10/28 16:36:01;;;;;;;16.73;9.65;;;;;;;9.81;60.11;100475.91;4883460;29;20575;-62
2021/10/28 16:38:35;;;;;;;16.48;9.77;;;;;;;9.70;60.50;100473.16;4883140;29;20152;-62
2021/10/28 16:41:11;;;;;;;16.55;10.80;;;;;;;9.64;60.52;100472.22;4883686;29;20053;-62
2021/10/28 16:43:43;;;;;;;16.38;9.77;;;;;;;9.42;60.42;100448.97;4882900;29;20049;-62
2021/10/28 16:46:13;;;;;;;16.55;9.30;;;;;;;9.42;60.90;100474.44;4882983;29;20045;-62
2021/10/28 16:48:46;;;;;;;15.75;9.05;;;;;;;9.34;61.06;100472.56;4883012;29;20490;-62
2021/10/28 16:51:16;;;;;;;15.35;8.82;;;;;;;9.29;61.58;100475.03;4883274;29;20044;-62
2021/10/28 16:53:49;;;;;;;;;;;;;;;9.31;61.47;100475.94;4883484;29;20049;-62
2021/10/28 16:56:18;;;;;;;14.18;8.32;;;;;;;9.12;61.36;100476.44;4882198;29;20366;-62
2021/10/28 16:58:48;;;;;;;16.08;9.40;;;;;;;8.98;62.38;100475.34;4882765;29;20045;-62
2021/10/28 17:01:20;;;;;;;19.15;10.30;;;;;;;8.94;62.24;100471.03;4883029;29;20452;-62
2021/10/28 17:03:50;;;;;;;18.25;10.27;;;;;;;8.94;62.41;100483.75;4882941;29;20053;-62
2021/10/28 17:06:21;;;;;;;20.08;10.57;;;;;;;8.88;62.90;100481.09;4880082;29;20071;-63
2021/10/28 17:08:59;;;;;;;19.67;9.95;;;;;;;8.83;62.64;100482.69;4879597;29;20061;-62
2021/10/28 17:11:29;;;;;;;16.70;9.52;;;;;;;8.79;63.22;100486.00;4871276;29;20049;-62
2021/10/28 17:13:59;;;;;;;19.05;11.30;;;;;;;8.80;63.74;100490.28;4877753;29;20391;-64
2021/10/28 17:16:29;;;;;;;25.38;13.95;;;;;;;8.68;63.82;100497.69;4881181;29;20037;-64
2021/10/28 17:19:00;;;;;;;25.25;13.98;;;;;;;8.68;63.72;100502.75;4870927;29;20400;-62
2021/10/28 17:21:29;;;;;;;26.15;15.13;;;;;;;8.58;64.94;100495.78;4879534;29;20543;-63
2021/10/28 17:24:02;;;;;;;27.70;15.88;;;;;;;8.59;64.70;100498.31;4882149;29;20049;-62
2021/10/28 17:26:33;;;;;;;33.83;16.75;;;;;;;8.55;64.99;100499.09;4882167;29;20045;-62
2021/10/28 17:29:09;;;;;;;35.00;20.35;;;;;;;8.39;64.93;100498.75;4882246;29;20049;-62
2021/10/28 17:31:38;;;;;;;36.55;22.15;;;;;;;8.23;64.94;100507.69;4865434;29;20132;-63
2021/10/28 17:34:08;;;;;;;40.72;24.05;;;;;;;8.09;65.50;100514.16;4881987;29;20129;-63
2021/10/28 17:36:37;;;;;;;37.85;22.70;;;;;;;7.92;65.88;100487.50;4882225;29;20547;-62
2021/10/28 17:39:08;;;;;;;36.13;20.90;;;;;;;8.00;65.97;100519.03;4880101;29;20515;-62
2021/10/28 17:41:38;;;;;;;34.85;21.02;;;;;;;7.76;65.64;100514.25;4882033;29;20053;-62
2021/10/28 17:44:08;;;;;;;35.22;21.67;;;;;;;7.71;66.49;100510.75;4880855;29;20068;-62
2021/10/28 17:46:36;;;;;;;;;;;;;;;7.74;65.93;100520.13;4880686;29;20385;-62
2021/10/28 17:49:09;;;;;;;33.33;19.27;;;;;;;7.66;66.46;100514.84;4878955;29;19923;-62
2021/10/28 17:51:42;;;;;;;33.03;18.52;;;;;;;7.66;66.53;100516.53;4879228;29;20132;-62
2021/10/28 17:54:15;;;;;;;34.20;19.55;;;;;;;7.58;66.40;100521.44;4879934;29;20048;-62
2021/10/28 17:56:45;;;;;;;34.78;18.35;;;;;;;7.48;66.72;100516.94;4879006;29;20052;-62
2021/10/28 17:59:18;;;;;;;31.73;18.77;;;;;;;7.22;66.90;100518.81;4880854;29;20077;-62
2021/10/28 18:01:47;;;;;;;31.17;18.38;;;;;;;7.06;67.92;100515.81;4880311;29;20079;-62
2021/10/28 18:04:17;;;;;;;28.95;17.63;;;;;;;7.03;67.37;100519.16;4881654;29;20048;-62
2021/10/28 18:06:50;;;;;;;29.02;17.25;;;;;;;6.96;67.23;100504.56;4880240;29;20179;-61
2021/10/28 18:09:23;;;;;;;32.53;18.35;;;;;;;7.11;67.61;100519.34;4879819;29;20060;-62
2021/10/28 18:11:56;;;;;;;37.53;18.63;;;;;;;7.26;67.53;100525.72;4881441;29;20131;-62
2021/10/28 18:14:29;;;;;;;30.58;17.23;;;;;;;7.33;66.96;100521.63;4881399;29;20499;-62
2021/10/28 18:16:59;;;;;;;32.88;19.33;;;;;;;7.03;67.15;100500.53;4876730;29;20127;-62
2021/10/28 18:19:28;;;;;;;;;;;;;;;7.04;67.18;100523.41;4881908;29;20071;-62
2021/10/28 18:21:57;;;;;;;36.40;19.47;;;;;;;6.89;67.39;100517.03;4881168;29;19982;-62
2021/10/28 18:24:31;;;;;;;37.30;20.33;;;;;;;6.73;66.92;100520.84;4881170;29;20164;-62
2021/10/28 18:27:04;;;;;;;50.30;30.08;;;;;;;6.78;67.22;100514.25;4881271;29;20136;-62
2021/10/28 18:29:36;;;;;;;48.33;26.92;;;;;;;6.81;67.81;100509.25;4880897;29;20061;-62
2021/10/28 18:32:07;;;;;;;46.10;25.95;;;;;;;6.81;67.80;100509.25;4880736;29;20071;-61
2021/10/28 18:34:42;;;;;;;47.65;26.15;;;;;;;6.80;67.71;100519.34;4881076;29;20109;-62
2021/10/28 18:37:14;;;;;;;47.38;26.40;;;;;;;6.77;67.71;100506.59;4881334;29;20053;-62
2021/10/28 18:39:46;;;;;;;39.47;23.98;;;;;;;6.74;68.11;100509.91;4880953;29;20097;-63
2021/10/28 18:42:19;;;;;;;42.17;24.05;;;;;;;6.72;67.86;100508.97;4881209;29;20056;-63
2021/10/28 18:44:52;;;;;;;42.60;23.63;;;;;;;6.60;68.12;100489.22;4880868;29;20055;-63
2021/10/28 18:47:45;;;;;;;40.55;22.27;;;;;;;6.63;68.13;100504.50;4881098;29;20048;-63
2021/10/28 18:50:17;;;;;;;40.22;21.70;;;;;;;6.49;68.05;100508.34;4881079;29;20053;-63
2021/10/28 18:52:50;;;;;;;42.85;22.13;;;;;;;6.39;67.93;100508.03;4881081;29;20423;-63
2021/10/28 18:55:24;;;;;;;37.13;21.17;;;;;;;6.32;68.48;100507.00;4879885;29;20057;-63
2021/10/28 18:57:54;;;;;;;37.75;21.17;;;;;;;6.25;68.47;100500.03;4880958;29;20155;-62
2021/10/28 19:00:26;;;;;;;36.40;20.35;;;;;;;6.15;68.57;100502.22;4880912;29;20417;-63
2021/10/28 19:02:59;;;;;;;34.65;20.20;;;;;;;6.15;68.84;100513.22;4880878;29;20092;-63
2021/10/28 19:05:32;;;;;;;32.83;19.30;;;;;;;6.20;68.56;100514.22;4880588;29;20076;-63
2021/10/28 19:08:05;;;;;;;36.40;20.33;;;;;;;6.20;68.82;100506.63;4880749;29;20135;-62
2021/10/28 19:10:42;;;;;;;32.17;18.48;;;;;;;6.07;68.97;100504.53;4880521;29;20105;-62
2021/10/28 19:13:14;;;;;;;35.70;18.83;;;;;;;5.87;69.06;100496.34;4880734;29;20460;-62
2021/10/28 19:15:45;;;;;;;34.08;19.35;;;;;;;5.94;69.34;100507.50;4880361;29;20060;-62
2021/10/28 19:18:18;;;;;;;32.63;18.10;;;;;;;6.08;69.19;100506.25;4880568;29;20151;-62
2021/10/28 19:20:48;;;;;;;29.33;18.77;;;;;;;6.28;69.22;100502.66;4880280;29;20068;-63
2021/10/28 19:23:21;;;;;;;34.22;18.45;;;;;;;6.27;68.59;100503.47;4880149;29;20111;-63
2021/10/28 19:25:51;;;;;;;35.97;19.95;;;;;;;6.28;68.79;100502.66;4880259;29;20056;-63
2021/10/28 19:28:25;;;;;;;31.85;18.83;;;;;;;6.28;68.60;100505.19;4880482;29;20456;-62
2021/10/28 19:30:58;;;;;;;31.13;17.70;;;;;;;6.16;68.49;100504.81;4880171;29;20061;-63
2021/10/28 19:33:38;;;;;;;33.50;17.25;;;;;;;5.94;68.37;100507.50;4880087;29;20108;-63
2021/10/28 19:36:14;;;;;;;34.55;17.40;;;;;;;5.88;68.95;100507.31;4880087;29;20053;-63
2021/10/28 19:46:56;;;;;;;34.22;19.25;;;;;;;5.85;69.30;100504.69;4849646;29;20055;-62
2021/10/28 19:49:29;;;;;;;35.83;19.05;;;;;;;5.76;69.43;100506.91;4880498;29;20057;-61
2021/10/28 19:52:05;;;;;;;36.80;19.13;;;;;;;5.75;69.41;100510.25;4879904;29;20114;-61
2021/10/28 19:54:34;;;;;;;32.42;18.67;;;;;;;5.78;69.51;100500.22;4879111;29;20052;-62
2021/10/28 19:57:06;;;;;;;;;;;;;;;5.72;69.40;100510.16;4880554;29;20132;-61
2021/10/28 19:59:44;;;;;;;35.22;18.70;;;;;;;5.56;69.52;100502.88;4880063;29;20274;-62
2021/10/28 20:02:23;;;;;;;31.58;18.60;;;;;;;5.40;69.76;100507.44;4879817;29;20053;-62
2021/10/28 20:21:22;;;;;;;38.58;21.15;;;;;;;5.48;70.05;100511.88;4879627;29;20080;-62
2021/10/28 20:23:55;;;;;;;37.55;20.75;;;;;;;5.62;70.09;100505.59;4879536;29;20128;-62
2021/10/28 20:26:25;;;;;;;38.08;21.33;;;;;;;5.53;70.00;100507.84;4880208;29;20578;-63
2021/10/28 20:28:59;;;;;;;36.20;20.95;;;;;;;5.45;69.98;100519.41;4879411;29;20136;-62
2021/10/28 20:31:29;;;;;;;41.30;22.10;;;;;;;5.48;69.94;100504.28;4879557;29;20051;-62